MSC Maeva — H9TF — position and weather

sailwx.info

Track history (hours):
 
Tides and Currents Weather Stations Pressure Air Temp Water Temp Dewpoint Dewpoint Depression Visibility Wind Speed Wind Dir Waves Ship Positions

MSC Maeva

Last reported at 2015-May-15 10:33 UTC. Time now 2015-May-27 07:42 UTC.
Position S 33°50' E 018°20'.
Warning: this ship's position is 11 days out of date.

Type: Ship (hazmat cat A). MMSI: 371851000.

Date/timePositionNaut miles runAvg speedWind from/ knotsBaromVisibWave heightAir tempDewpointWater temp
2015-May-15 10:33S 33°50' E 018°20'7 6.9
2015-May-15 09:32S 33°55' E 018°27'0 0.0
2015-May-15 08:33S 33°54' E 018°27'0 0.0
2015-May-15 07:31S 33°54' E 018°27'0 0.0
2015-May-15 06:31S 33°54' E 018°27'0 0.0
2015-May-15 05:28S 33°54' E 018°27'0 0.0
2015-May-15 04:31S 33°54' E 018°27'0 0.0
2015-May-15 03:31S 33°54' E 018°27'0 0.0
2015-May-15 02:31S 33°54' E 018°27'0 0.0
2015-May-15 01:28S 33°54' E 018°27'0 0.0
2015-May-15 00:28S 33°54' E 018°27'0 0.0
2015-May-14 23:28S 33°54' E 018°27'0 0.0
2015-May-14 22:31S 33°54' E 018°27'0 0.0
2015-May-14 21:31S 33°54' E 018°27'0 0.0
2015-May-14 20:31S 33°54' E 018°27'0 0.0
2015-May-14 19:31S 33°54' E 018°27'0 0.0
2015-May-14 18:30S 33°54' E 018°27'0 0.0
2015-May-14 17:33S 33°54' E 018°27'0 0.0
2015-May-14 16:33S 33°54' E 018°27'0 0.0
2015-May-14 15:33S 33°54' E 018°27'0 0.0
2015-May-14 14:33S 33°54' E 018°27'0 0.0
2015-May-14 13:30S 33°54' E 018°27'0 0.0
2015-May-14 12:33S 33°54' E 018°27'2 1.6
2015-May-14 11:33S 33°53' E 018°26'2 2.1
2015-May-14 10:33S 33°52' E 018°23'36117.9
2015-May-13 14:22S 34°38' E 025°36'  
2015-May-09 03:31S 20°08' E 057°29'0 0.1
2015-May-09 02:31S 20°09' E 057°29'0 0.0
2015-May-09 01:31S 20°09' E 057°29'0 0.0
2015-May-09 00:31S 20°09' E 057°29'0 0.0
2015-May-08 23:31S 20°09' E 057°29'0 0.0
2015-May-08 22:31S 20°09' E 057°29'0 0.0
2015-May-08 21:31S 20°09' E 057°29'0 0.0
2015-May-08 20:31S 20°09' E 057°29'0 0.0
2015-May-08 19:34S 20°09' E 057°29'0 0.0
2015-May-08 18:33S 20°09' E 057°29'0 0.0
2015-May-08 17:33S 20°09' E 057°29'0 0.0
2015-May-08 16:33S 20°09' E 057°29'0 0.0
2015-May-08 15:33S 20°09' E 057°29'0 0.0
2015-May-08 14:33S 20°09' E 057°29'0 0.0
2015-May-08 13:33S 20°09' E 057°29'0 0.0
2015-May-08 12:33S 20°09' E 057°29'0 0.0
2015-May-08 11:33S 20°09' E 057°29'0 0.0
2015-May-08 10:33S 20°09' E 057°29'0 0.0
2015-May-08 09:30S 20°09' E 057°29'0 0.0
2015-May-08 08:33S 20°09' E 057°29'0 0.0
2015-May-08 07:30S 20°09' E 057°29'0 0.0
2015-May-08 06:33S 20°09' E 057°29'0 0.0
2015-May-08 05:33S 20°09' E 057°29'0 0.0
2015-May-08 04:30S 20°09' E 057°29'0 0.0
2015-May-08 03:33S 20°09' E 057°29'0 0.3
2015-May-08 02:33S 20°08' E 057°29'  
Track history (hours):
 
Tides and Currents Weather Stations Pressure Air Temp Water Temp Dewpoint Dewpoint Depression Visibility Wind Speed Wind Dir Waves Ship Positions

MSC Maeva

Last reported at 2015-May-15 10:33 UTC. Time now 2015-May-27 07:42 UTC.
Position S 33°50' E 018°20'.
Warning: this ship's position is 11 days out of date.

Type: Ship (hazmat cat A). MMSI: 371851000.

Date/timePositionNaut miles runAvg speedWind from/ knotsBaromVisibWave heightAir tempDewpointWater temp
2015-May-15 10:33S 33°50' E 018°20'7 6.9
2015-May-15 09:32S 33°55' E 018°27'0 0.0
2015-May-15 08:33S 33°54' E 018°27'0 0.0
2015-May-15 07:31S 33°54' E 018°27'0 0.0
2015-May-15 06:31S 33°54' E 018°27'0 0.0
2015-May-15 05:28S 33°54' E 018°27'0 0.0
2015-May-15 04:31S 33°54' E 018°27'0 0.0
2015-May-15 03:31S 33°54' E 018°27'0 0.0
2015-May-15 02:31S 33°54' E 018°27'0 0.0
2015-May-15 01:28S 33°54' E 018°27'0 0.0
2015-May-15 00:28S 33°54' E 018°27'0 0.0
2015-May-14 23:28S 33°54' E 018°27'0 0.0
2015-May-14 22:31S 33°54' E 018°27'0 0.0
2015-May-14 21:31S 33°54' E 018°27'0 0.0
2015-May-14 20:31S 33°54' E 018°27'0 0.0
2015-May-14 19:31S 33°54' E 018°27'0 0.0
2015-May-14 18:30S 33°54' E 018°27'0 0.0
2015-May-14 17:33S 33°54' E 018°27'0 0.0
2015-May-14 16:33S 33°54' E 018°27'0 0.0
2015-May-14 15:33S 33°54' E 018°27'0 0.0
2015-May-14 14:33S 33°54' E 018°27'0 0.0
2015-May-14 13:30S 33°54' E 018°27'0 0.0
2015-May-14 12:33S 33°54' E 018°27'2 1.6
2015-May-14 11:33S 33°53' E 018°26'2 2.1
2015-May-14 10:33S 33°52' E 018°23'36117.9
2015-May-13 14:22S 34°38' E 025°36'  
2015-May-09 03:31S 20°08' E 057°29'0 0.1
2015-May-09 02:31S 20°09' E 057°29'0 0.0
2015-May-09 01:31S 20°09' E 057°29'0 0.0
2015-May-09 00:31S 20°09' E 057°29'0 0.0
2015-May-08 23:31S 20°09' E 057°29'0 0.0
2015-May-08 22:31S 20°09' E 057°29'0 0.0
2015-May-08 21:31S 20°09' E 057°29'0 0.0
2015-May-08 20:31S 20°09' E 057°29'0 0.0
2015-May-08 19:34S 20°09' E 057°29'0 0.0
2015-May-08 18:33S 20°09' E 057°29'0 0.0
2015-May-08 17:33S 20°09' E 057°29'0 0.0
2015-May-08 16:33S 20°09' E 057°29'0 0.0
2015-May-08 15:33S 20°09' E 057°29'0 0.0
2015-May-08 14:33S 20°09' E 057°29'0 0.0
2015-May-08 13:33S 20°09' E 057°29'0 0.0
2015-May-08 12:33S 20°09' E 057°29'0 0.0
2015-May-08 11:33S 20°09' E 057°29'0 0.0
2015-May-08 10:33S 20°09' E 057°29'0 0.0
2015-May-08 09:30S 20°09' E 057°29'0 0.0
2015-May-08 08:33S 20°09' E 057°29'0 0.0
2015-May-08 07:30S 20°09' E 057°29'0 0.0
2015-May-08 06:33S 20°09' E 057°29'0 0.0
2015-May-08 05:33S 20°09' E 057°29'0 0.0
2015-May-08 04:30S 20°09' E 057°29'0 0.0
2015-May-08 03:33S 20°09' E 057°29'0 0.3
2015-May-08 02:33S 20°08' E 057°29'  

Dump ship's entire track history